createdAt,value
2019-01-25T01:39:06.138Z,15.65
2019-01-25T01:50:28.569Z,16.42
2019-01-25T01:52:55.991Z,15.43
2019-01-25T01:55:23.404Z,16.85
2019-01-25T01:57:50.817Z,14.70
2019-01-25T02:00:20.730Z,17.07
2019-01-25T02:02:48.254Z,18.07
2019-01-25T02:05:15.709Z,16.55
2019-01-25T02:07:43.136Z,16.65
2019-01-25T02:10:13.141Z,17.77
2019-01-25T02:12:40.473Z,18.12
2019-01-25T02:15:09.829Z,16.85
2019-01-25T02:17:37.237Z,16.37
2019-01-25T02:20:06.098Z,15.75
2019-01-25T02:22:33.806Z,16.55
2019-01-25T02:25:01.156Z,16.20
2019-01-25T02:27:28.479Z,16.07
2019-01-25T02:29:56.265Z,15.32
2019-01-25T02:32:23.981Z,15.85
2019-01-25T02:34:51.281Z,18.30
2019-01-25T02:37:18.689Z,16.32
2019-01-25T02:39:46.099Z,17.25
2019-01-25T02:42:13.710Z,17.00
2019-01-25T02:44:41.052Z,16.95
2019-01-25T02:47:08.466Z,17.70
2019-01-25T02:49:35.786Z,17.70
2019-01-25T02:52:03.441Z,17.10
2019-01-25T02:54:30.906Z,19.48
2019-01-25T02:56:58.394Z,18.15
2019-01-25T02:59:25.831Z,18.32
2019-01-25T03:01:53.211Z,20.57
2019-01-25T03:04:20.622Z,18.42
2019-01-25T03:06:48.016Z,19.27
2019-01-25T03:09:15.435Z,19.07
2019-01-25T03:11:42.743Z,18.92
2019-01-25T03:14:10.438Z,17.98
2019-01-25T03:16:37.758Z,18.12
2019-01-25T03:19:05.057Z,17.82
2019-01-25T03:21:32.462Z,16.60
2019-01-25T03:23:59.764Z,17.45
2019-01-25T03:26:27.166Z,16.50
2019-01-25T03:28:54.575Z,15.50
2019-01-25T03:31:22.017Z,15.95
2019-01-25T03:33:49.447Z,17.27
2019-01-25T03:36:17.075Z,15.00
2019-01-25T03:38:44.375Z,17.15
2019-01-25T03:41:11.696Z,17.00
2019-01-25T03:43:39.018Z,18.73
2019-01-25T03:46:06.351Z,18.60
2019-01-25T03:48:33.669Z,18.40
2019-01-25T03:51:01.628Z,18.27
2019-01-25T03:53:29.054Z,18.40
2019-01-25T03:55:56.457Z,17.90
2019-01-25T03:58:23.864Z,18.98
2019-01-25T04:00:51.298Z,18.15
2019-01-25T04:03:18.719Z,20.60
2019-01-25T04:05:46.131Z,19.27
2019-01-25T04:08:13.593Z,17.70
2019-01-25T04:10:41.010Z,20.60
2019-01-25T04:13:08.289Z,20.32
2019-01-25T04:15:35.604Z,19.30
2019-01-25T04:18:03.817Z,19.77
2019-01-25T04:20:31.265Z,19.27
2019-01-25T04:22:58.678Z,19.95
2019-01-25T04:25:26.316Z,19.35
2019-01-25T04:27:53.549Z,19.37
2019-01-25T04:30:40.340Z,19.85
2019-01-25T04:33:07.726Z,19.95
2019-01-25T04:35:35.505Z,22.48
2019-01-25T04:38:03.512Z,20.62
2019-01-25T04:40:30.867Z,21.15
2019-01-25T04:42:58.874Z,20.75
2019-01-25T04:45:26.213Z,21.50
2019-01-25T04:47:53.634Z,21.00
2019-01-25T04:50:22.939Z,19.35
2019-01-25T04:52:50.548Z,19.80
2019-01-25T04:55:28.764Z,19.17
2019-01-25T04:58:22.092Z,20.52
2019-01-25T05:00:49.490Z,19.80
2019-01-25T05:03:17.058Z,21.33
2019-01-25T05:05:44.748Z,21.62
2019-01-25T05:08:19.691Z,20.17
2019-01-25T05:10:47.137Z,20.77
2019-01-25T05:13:14.555Z,20.15
2019-01-25T05:15:41.884Z,19.12
2019-01-25T05:18:09.883Z,21.52
2019-01-25T05:20:37.309Z,20.25
2019-01-25T05:23:05.660Z,19.55
2019-01-25T05:25:33.064Z,17.87
2019-01-25T05:28:14.600Z,21.33
2019-01-25T05:30:50.031Z,18.60
2019-01-25T05:33:17.456Z,16.93
2019-01-25T05:35:44.772Z,19.32
2019-01-25T05:38:12.204Z,19.82
2019-01-25T05:40:39.561Z,18.80
2019-01-25T05:43:07.004Z,19.25
2019-01-25T05:45:39.863Z,19.40
2019-01-25T05:48:07.289Z,19.23
2019-01-25T05:50:34.607Z,19.20
2019-01-25T05:53:02.262Z,20.80
2019-01-25T05:55:29.694Z,18.45
2019-01-25T05:58:00.868Z,19.02
2019-01-25T06:00:32.026Z,18.48
2019-01-25T06:03:06.213Z,19.17
2019-01-25T06:05:33.610Z,20.80
2019-01-25T06:08:03.096Z,20.80
2019-01-25T06:10:32.198Z,20.60
2019-01-25T06:12:59.654Z,19.92
2019-01-25T06:15:28.485Z,18.92
2019-01-25T06:18:00.583Z,21.23
2019-01-25T06:20:27.991Z,19.45
2019-01-25T06:22:55.803Z,20.35
2019-01-25T06:25:23.210Z,19.52
2019-01-25T06:27:50.623Z,20.85
2019-01-25T06:30:18.076Z,20.75
2019-01-25T06:32:45.529Z,20.97
2019-01-25T06:35:12.907Z,20.30
2019-01-25T06:37:40.283Z,19.57
2019-01-25T06:40:08.154Z,20.17
2019-01-25T06:42:35.893Z,21.55
2019-01-25T06:45:05.680Z,20.72
2019-01-25T06:47:33.103Z,20.12
2019-01-25T06:50:00.868Z,20.90
2019-01-25T06:52:28.219Z,20.75
2019-01-25T06:54:55.632Z,20.68
2019-01-25T06:57:39.175Z,22.02
2019-01-25T07:00:09.103Z,20.82
2019-01-25T07:02:38.864Z,20.80
2019-01-25T07:05:07.606Z,23.42
2019-01-25T07:07:36.623Z,23.20
2019-01-25T07:10:07.383Z,24.85
2019-01-25T07:12:34.972Z,24.50
2019-01-25T07:15:03.278Z,27.42
2019-01-25T07:17:30.631Z,24.75
2019-01-25T07:19:58.089Z,22.00
2019-01-25T07:22:25.480Z,22.25
2019-01-25T07:24:57.171Z,23.73
2019-01-25T07:27:22.019Z,22.13
2019-01-25T07:29:49.469Z,22.02
2019-01-25T07:32:17.330Z,21.10
2019-01-25T07:34:44.735Z,22.50
2019-01-25T07:37:12.175Z,22.52
2019-01-25T07:39:39.757Z,20.55
2019-01-25T07:42:07.189Z,20.25
2019-01-25T07:44:34.614Z,21.00
2019-01-25T07:47:02.023Z,21.55
2019-01-25T07:49:29.482Z,21.57
2019-01-25T07:51:57.208Z,20.15
2019-01-25T07:54:24.711Z,21.65
2019-01-25T07:56:54.715Z,23.70
2019-01-25T07:59:22.805Z,20.82
2019-01-25T08:01:50.220Z,20.80
2019-01-25T08:04:17.694Z,22.75
2019-01-25T08:06:45.203Z,23.22
2019-01-25T08:09:12.737Z,24.00
2019-01-25T08:11:40.257Z,22.77
2019-01-25T08:14:08.053Z,23.57
2019-01-25T08:16:35.541Z,26.00
2019-01-25T08:19:03.085Z,26.00
2019-01-25T08:21:30.532Z,24.12
2019-01-25T08:23:57.965Z,22.45
2019-01-25T08:26:25.772Z,22.73
2019-01-25T08:28:55.549Z,23.85
2019-01-25T08:31:23.380Z,23.65
2019-01-25T08:33:50.826Z,22.15
2019-01-25T08:36:19.375Z,20.43
2019-01-25T08:38:49.139Z,21.95
2019-01-25T08:41:16.693Z,23.15
2019-01-25T08:43:44.108Z,22.42
2019-01-25T08:46:11.588Z,20.65
2019-01-25T08:48:39.315Z,20.43
2019-01-25T08:51:08.321Z,21.77
2019-01-25T08:53:37.542Z,21.20
2019-01-25T08:56:05.361Z,20.70
2019-01-25T08:58:35.834Z,18.15
2019-01-25T09:01:04.264Z,20.32
2019-01-25T09:03:31.748Z,20.80
2019-01-25T09:05:59.191Z,20.72
2019-01-25T09:08:26.561Z,20.97
2019-01-25T09:10:54.070Z,22.30
2019-01-25T09:13:21.435Z,21.25
2019-01-25T09:15:48.905Z,21.12
2019-01-25T09:18:16.272Z,20.70
2019-01-25T09:20:43.778Z,20.00
2019-01-25T09:23:11.242Z,19.10
2019-01-25T09:25:38.670Z,20.88
2019-01-25T09:28:06.498Z,21.45
2019-01-25T09:30:33.988Z,21.10
2019-01-25T09:33:01.799Z,20.32
2019-01-25T09:35:29.236Z,18.37
2019-01-25T09:37:56.589Z,20.37
2019-01-25T09:40:24.517Z,19.82
2019-01-25T09:42:51.947Z,22.13
2019-01-25T09:45:19.965Z,20.97
2019-01-25T09:47:47.419Z,20.02
2019-01-25T09:50:16.158Z,20.80
2019-01-25T09:52:43.714Z,20.72
2019-01-25T09:55:15.602Z,19.90
2019-01-25T09:57:45.792Z,22.25
2019-01-25T10:00:25.846Z,20.12
2019-01-25T10:02:53.257Z,19.95
2019-01-25T10:05:20.587Z,20.30
2019-01-25T10:07:49.199Z,18.32
2019-01-25T10:10:16.538Z,17.67
2019-01-25T10:12:43.873Z,19.12
2019-01-25T10:15:15.432Z,17.35
2019-01-25T10:17:42.842Z,19.65
2019-01-25T10:20:10.358Z,18.92
2019-01-25T10:22:37.933Z,19.12
2019-01-25T10:25:06.606Z,20.55
2019-01-25T10:27:34.348Z,16.73
2019-01-25T10:30:01.799Z,18.57
2019-01-25T10:32:29.277Z,18.87
2019-01-25T10:34:56.698Z,17.95
2019-01-25T10:37:24.089Z,17.95
2019-01-25T10:39:51.399Z,18.37
2019-01-25T10:42:19.142Z,16.52
2019-01-25T10:44:46.562Z,20.10
2019-01-25T10:47:14.040Z,18.10
2019-01-25T10:49:41.510Z,17.67
2019-01-25T10:52:09.118Z,17.30
2019-01-25T10:54:36.658Z,16.42
2019-01-25T10:57:04.217Z,15.85
2019-01-25T10:59:31.812Z,16.85
2019-01-25T11:01:59.240Z,16.45
2019-01-25T11:04:26.737Z,16.90
2019-01-25T11:06:54.181Z,15.70
2019-01-25T11:09:21.603Z,18.32
2019-01-25T11:11:48.930Z,17.48
2019-01-25T11:14:16.264Z,18.73
2019-01-25T11:16:43.604Z,18.85
2019-01-25T11:19:11.060Z,19.87
2019-01-25T11:21:38.486Z,18.23
2019-01-25T11:24:07.844Z,19.10
2019-01-25T11:26:35.180Z,17.85
2019-01-25T11:29:02.626Z,17.25
2019-01-25T11:31:29.953Z,17.20
2019-01-25T11:33:57.429Z,17.65
2019-01-25T11:36:24.865Z,16.60
2019-01-25T11:38:52.366Z,17.05
2019-01-25T11:41:20.134Z,17.40
2019-01-25T11:43:47.571Z,17.92
2019-01-25T11:46:15.019Z,16.50
2019-01-25T11:48:42.472Z,14.07
2019-01-25T11:51:09.940Z,13.45
2019-01-25T11:53:37.508Z,13.58
2019-01-25T11:56:04.978Z,14.25
2019-01-25T11:58:32.319Z,13.65
2019-01-25T12:00:59.650Z,15.25
2019-01-25T12:03:27.071Z,15.93
2019-01-25T12:05:54.523Z,14.93
2019-01-25T12:08:21.884Z,16.00
2019-01-25T12:10:49.790Z,15.28
2019-01-25T12:13:17.252Z,16.97
2019-01-25T12:15:44.700Z,13.05
2019-01-25T12:18:12.475Z,14.25
2019-01-25T12:20:39.867Z,12.25
2019-01-25T12:23:07.220Z,12.47
2019-01-25T12:25:34.605Z,13.88
2019-01-25T12:28:05.266Z,12.37
2019-01-25T12:30:38.045Z,13.50
2019-01-25T12:33:06.660Z,12.93
2019-01-25T12:35:42.219Z,12.33
2019-01-25T12:38:09.651Z,14.25
2019-01-25T12:40:41.791Z,12.58
2019-01-25T12:43:25.804Z,11.70
2019-01-25T12:45:53.147Z,12.37
2019-01-25T12:48:20.530Z,15.35
2019-01-25T12:50:51.570Z,14.47
2019-01-25T12:53:20.470Z,15.80
2019-01-25T12:55:47.906Z,15.20
2019-01-25T12:58:15.647Z,15.13
2019-01-25T13:00:43.034Z,14.87
2019-01-25T13:03:11.021Z,18.32
2019-01-25T13:05:38.615Z,15.93
2019-01-25T13:08:06.821Z,16.55
2019-01-25T13:10:34.308Z,16.57
2019-01-25T13:13:01.837Z,17.32
2019-01-25T13:15:29.296Z,16.65
2019-01-25T13:17:56.738Z,15.65
2019-01-25T13:20:25.510Z,14.90
2019-01-25T13:22:53.234Z,17.32
2019-01-25T13:25:21.218Z,17.17
2019-01-25T13:27:48.703Z,16.23
2019-01-25T13:30:21.755Z,18.70
2019-01-25T13:32:49.218Z,15.05
2019-01-25T13:35:16.815Z,16.30
2019-01-25T13:37:44.340Z,16.87
2019-01-25T13:40:14.038Z,16.32
2019-01-25T13:42:41.933Z,15.85
2019-01-25T13:45:11.177Z,16.73
2019-01-25T13:47:38.617Z,23.27
2019-01-25T13:50:08.456Z,16.70
2019-01-25T13:52:35.988Z,16.95
2019-01-25T13:55:05.095Z,14.55
2019-01-25T13:57:32.563Z,14.33
2019-01-25T14:00:01.758Z,16.07
2019-01-25T14:02:29.432Z,17.25
2019-01-25T14:04:56.906Z,14.70
2019-01-25T14:07:24.484Z,15.23
2019-01-25T14:09:51.912Z,19.00
2019-01-25T14:12:19.375Z,15.75
2019-01-25T14:14:46.874Z,16.65
2019-01-25T14:17:14.518Z,16.07
2019-01-25T14:19:41.980Z,14.15
2019-01-25T14:22:09.358Z,13.80
2019-01-25T14:24:36.872Z,13.20
2019-01-25T14:27:04.422Z,14.05
2019-01-25T14:29:31.839Z,15.68
2019-01-25T14:31:59.232Z,12.47
2019-01-25T14:34:26.861Z,14.23
2019-01-25T14:36:54.407Z,13.65
2019-01-25T14:39:21.918Z,15.60
2019-01-25T14:41:49.796Z,12.30
2019-01-25T14:44:17.307Z,17.23
2019-01-25T14:46:44.854Z,13.20
2019-01-25T15:19:16.609Z,13.43
2019-01-25T15:21:44.101Z,11.38
2019-01-25T15:24:11.462Z,12.33
2019-01-25T15:26:38.932Z,13.20
2019-01-25T15:29:06.271Z,14.13
2019-01-25T15:31:33.723Z,12.58
2019-01-25T15:34:01.198Z,11.38
2019-01-25T15:36:28.626Z,12.50
2019-01-25T15:38:55.974Z,14.00
2019-01-25T15:41:23.546Z,13.20
2019-01-25T15:43:51.032Z,12.28
2019-01-25T15:46:18.599Z,15.15
2019-01-25T15:48:46.452Z,14.70
2019-01-25T15:51:13.921Z,15.15
2019-01-25T15:53:41.410Z,12.53
2019-01-25T15:56:08.792Z,12.73
2019-01-25T15:58:36.201Z,15.90
2019-01-25T16:01:03.842Z,13.65
2019-01-25T16:03:31.305Z,14.18
2019-01-25T16:05:58.722Z,13.18
2019-01-25T16:08:26.259Z,14.80
2019-01-25T16:10:53.756Z,14.60
2019-01-25T16:13:21.608Z,13.43
2019-01-25T16:15:49.082Z,14.35
2019-01-25T16:18:16.600Z,14.00
2019-01-25T16:20:44.013Z,15.55
2019-01-25T16:23:11.871Z,13.10
2019-01-25T16:25:39.339Z,13.32
2019-01-25T16:28:06.872Z,12.30
2019-01-25T16:30:36.655Z,11.93
2019-01-25T16:33:04.385Z,11.50
2019-01-25T16:35:31.918Z,12.15
2019-01-25T16:37:59.648Z,14.10
2019-01-25T16:40:27.918Z,15.50
2019-01-25T16:42:55.578Z,13.93
2019-01-25T16:45:38.050Z,12.50
2019-01-25T16:48:05.821Z,13.25
2019-01-25T16:50:33.749Z,12.28
2019-01-25T16:53:01.293Z,13.05
2019-01-25T16:55:30.189Z,12.40
2019-01-25T16:57:57.744Z,13.13
2019-01-25T17:00:30.555Z,13.95
2019-01-25T17:02:58.240Z,14.35
2019-01-25T17:05:26.008Z,12.63
2019-01-25T17:07:53.739Z,14.47
2019-01-25T17:10:21.526Z,12.90
2019-01-25T17:12:49.201Z,12.80
2019-01-25T17:15:16.846Z,13.65
2019-01-25T17:17:44.855Z,12.60
2019-01-25T17:20:18.405Z,12.40
2019-01-25T17:22:42.689Z,12.75
2019-01-25T17:25:10.731Z,11.95
2019-01-25T17:27:39.041Z,12.20
2019-01-25T17:30:11.546Z,12.68
2019-01-25T17:32:39.165Z,12.53
2019-01-25T17:35:07.085Z,12.23
2019-01-25T17:37:34.762Z,12.47
2019-01-25T17:40:04.193Z,13.18
2019-01-25T17:42:31.829Z,12.13
2019-01-25T17:44:59.649Z,11.50
2019-01-25T17:47:27.317Z,13.55
2019-01-25T17:49:55.020Z,12.90
2019-01-25T17:52:22.951Z,13.15
2019-01-25T17:54:50.681Z,13.88
2019-01-25T17:57:18.281Z,13.62
2019-01-25T17:59:45.905Z,14.25
2019-01-25T18:02:13.669Z,14.40
2019-01-25T18:04:41.204Z,14.50
2019-01-25T18:07:08.864Z,13.70
2019-01-25T18:09:36.510Z,15.25
2019-01-25T18:12:04.445Z,13.53
2019-01-25T18:14:32.134Z,12.35
2019-01-25T18:17:00.067Z,13.48
2019-01-25T18:19:28.249Z,14.58
2019-01-25T18:21:55.976Z,14.80
2019-01-25T18:24:23.459Z,13.13
2019-01-25T18:26:51.662Z,13.43
2019-01-25T18:29:30.984Z,13.43
2019-01-25T18:31:58.547Z,14.75
2019-01-25T18:34:26.123Z,15.85
2019-01-25T18:36:53.723Z,12.95
2019-01-25T18:39:22.124Z,11.65
2019-01-25T18:41:49.627Z,13.65
2019-01-25T18:44:17.563Z,12.70
2019-01-25T18:46:45.082Z,12.45
2019-01-25T18:49:13.032Z,12.82
2019-01-25T18:51:40.713Z,11.83
2019-01-25T18:54:08.223Z,12.37
2019-01-25T18:56:36.046Z,12.95
2019-01-25T18:59:03.701Z,12.28
2019-01-25T19:01:31.187Z,12.85
2019-01-25T19:03:58.746Z,12.63
2019-01-25T19:06:26.243Z,12.68
2019-01-25T19:08:54.550Z,11.93
2019-01-25T19:11:22.148Z,13.18
2019-01-25T19:13:49.722Z,12.60
2019-01-25T19:16:29.912Z,12.82
2019-01-25T19:18:57.504Z,12.03
2019-01-25T19:21:25.061Z,12.00
2019-01-25T19:23:52.658Z,13.40
2019-01-25T19:26:20.211Z,13.43
2019-01-25T19:28:48.140Z,13.00
2019-01-25T19:31:15.778Z,11.83
2019-01-25T19:33:43.553Z,15.68
2019-01-25T19:36:11.536Z,13.10
2019-01-25T19:38:39.026Z,12.82
2019-01-25T19:41:06.747Z,12.90
2019-01-25T19:43:34.250Z,12.90
2019-01-25T19:46:01.880Z,12.33
2019-01-25T19:48:29.443Z,13.68
2019-01-25T19:50:56.917Z,14.47
2019-01-25T19:53:24.515Z,16.50
2019-01-25T19:55:52.524Z,13.98
2019-01-25T19:58:20.169Z,13.80
2019-01-25T20:00:47.787Z,14.83
2019-01-25T20:03:15.272Z,14.65
2019-01-25T20:05:42.768Z,14.60
2019-01-25T20:08:10.326Z,12.78
2019-01-25T20:10:38.117Z,14.00
2019-01-25T20:13:06.748Z,14.13
2019-01-25T20:15:34.212Z,14.07
2019-01-25T20:18:02.106Z,14.68
2019-01-25T20:20:31.330Z,15.28
2019-01-25T20:22:58.988Z,15.55
2019-01-25T20:25:26.567Z,14.30
2019-01-25T20:27:54.451Z,14.15
2019-01-25T20:30:27.061Z,15.93
2019-01-25T20:32:54.505Z,18.92
2019-01-25T20:35:24.610Z,16.55
2019-01-25T20:37:52.524Z,16.95
2019-01-25T20:40:20.295Z,15.05
2019-01-25T20:42:48.111Z,13.83
2019-01-25T20:45:27.062Z,13.83
2019-01-25T20:47:50.400Z,14.28
2019-01-25T20:50:20.790Z,13.72
2019-01-25T20:52:48.492Z,13.72
2019-01-25T20:55:17.271Z,13.53
2019-01-25T20:57:44.978Z,19.23
2019-01-25T21:00:15.494Z,15.00
2019-01-25T21:02:43.058Z,13.70
2019-01-25T21:05:10.611Z,14.50
2019-01-25T21:07:38.288Z,16.15
2019-01-25T21:10:08.754Z,13.70
2019-01-25T21:12:36.276Z,14.20
2019-01-25T21:15:05.395Z,13.65
2019-01-25T21:17:32.991Z,11.25
2019-01-25T21:20:00.535Z,12.80
2019-01-25T21:22:28.098Z,13.78
2019-01-25T21:24:55.892Z,14.95
2019-01-25T21:27:24.902Z,17.77
2019-01-25T21:29:52.446Z,14.05
2019-01-25T21:32:19.951Z,12.50
2019-01-25T21:34:47.560Z,12.65
2019-01-25T21:37:15.391Z,12.55
2019-01-25T21:39:42.888Z,12.88
2019-01-25T21:42:10.389Z,12.33
2019-01-25T21:44:38.016Z,13.40
2019-01-25T21:47:05.475Z,11.83
2019-01-25T21:49:33.017Z,12.78
2019-01-25T21:52:00.507Z,13.32
2019-01-25T21:54:28.015Z,11.55
2019-01-25T21:56:55.475Z,12.18
2019-01-25T21:59:22.963Z,11.85
2019-01-25T22:01:50.423Z,13.08
2019-01-25T22:04:17.920Z,11.10
2019-01-25T22:06:45.400Z,11.03
2019-01-25T22:09:13.045Z,12.07
2019-01-25T22:11:40.488Z,11.33
2019-01-25T22:14:08.059Z,12.60
2019-01-25T22:16:35.633Z,13.98
2019-01-25T22:19:03.076Z,10.70
2019-01-25T22:21:30.920Z,13.10
2019-01-25T22:23:58.745Z,12.18
2019-01-25T22:26:26.225Z,12.70
2019-01-25T22:28:53.693Z,12.47
2019-01-25T22:31:21.022Z,12.55
2019-01-25T22:33:48.406Z,11.48
2019-01-25T22:36:15.896Z,12.75
2019-01-25T22:38:43.637Z,12.95
2019-01-25T22:41:11.150Z,11.20
2019-01-25T22:43:38.652Z,13.18
2019-01-25T22:46:06.100Z,12.03
2019-01-25T22:48:33.615Z,11.40
2019-01-25T22:51:01.014Z,10.82
2019-01-25T22:53:28.387Z,11.88
2019-01-25T22:55:56.103Z,12.30
2019-01-25T22:58:23.557Z,11.78
2019-01-25T23:01:21.439Z,13.10
2019-01-25T23:04:26.045Z,10.43
2019-01-25T23:07:00.636Z,11.35
2019-01-25T23:09:30.679Z,12.40
2019-01-25T23:11:58.131Z,10.53
2019-01-25T23:14:25.557Z,11.35
2019-01-25T23:16:52.888Z,11.70
2019-01-25T23:19:20.107Z,12.37
2019-01-25T23:21:47.550Z,11.00
2019-01-25T23:24:15.357Z,11.83
2019-01-25T23:26:42.830Z,10.85
2019-01-25T23:29:10.277Z,12.28
2019-01-25T23:31:37.741Z,12.30
2019-01-25T23:34:05.185Z,11.70
2019-01-25T23:36:32.600Z,13.18
2019-01-25T23:38:59.954Z,12.82
2019-01-25T23:41:27.361Z,12.80
2019-01-25T23:43:54.790Z,14.43
2019-01-25T23:46:22.538Z,13.18
2019-01-25T23:48:49.954Z,14.00
2019-01-25T23:51:22.910Z,11.68
2019-01-25T23:53:46.532Z,15.00
2019-01-25T23:56:13.963Z,14.50
2019-01-25T23:58:41.306Z,15.70
